sensor_id;sensor_type;location;lat;lon;timestamp;pressure;altitude;pressure_sealevel;temperature;humidity
59951;BME280;45812;53.540;9.774;2022-08-21T00:01:11;101643.25;;;14.25;92.14
59951;BME280;45812;53.540;9.774;2022-08-21T00:03:37;101644.13;;;14.34;92.35
59951;BME280;45812;53.540;9.774;2022-08-21T00:06:03;101643.78;;;14.37;92.29
59951;BME280;45812;53.540;9.774;2022-08-21T00:08:28;101644.63;;;14.37;92.02
59951;BME280;45812;53.540;9.774;2022-08-21T00:10:54;101637.09;;;14.33;91.71
59951;BME280;45812;53.540;9.774;2022-08-21T00:13:19;101638.09;;;14.32;91.96
59951;BME280;45812;53.540;9.774;2022-08-21T00:15:45;101637.56;;;14.28;92.27
59951;BME280;45812;53.540;9.774;2022-08-21T00:18:11;101640.59;;;14.25;91.49
59951;BME280;45812;53.540;9.774;2022-08-21T00:20:39;101631.88;;;14.15;90.54
59951;BME280;45812;53.540;9.774;2022-08-21T00:23:04;101630.84;;;14.08;90.44
59951;BME280;45812;53.540;9.774;2022-08-21T00:25:30;101629.19;;;13.99;90.53
59951;BME280;45812;53.540;9.774;2022-08-21T00:27:56;101631.50;;;13.93;91.39
59951;BME280;45812;53.540;9.774;2022-08-21T00:30:23;101634.50;;;13.90;92.29
59951;BME280;45812;53.540;9.774;2022-08-21T00:32:50;101629.31;;;13.89;93.14
59951;BME280;45812;53.540;9.774;2022-08-21T00:35:18;101626.47;;;13.90;93.72
59951;BME280;45812;53.540;9.774;2022-08-21T00:37:44;101622.50;;;13.94;93.85
59951;BME280;45812;53.540;9.774;2022-08-21T00:40:14;101620.66;;;13.95;94.03
59951;BME280;45812;53.540;9.774;2022-08-21T00:42:39;101620.78;;;13.93;93.84
59951;BME280;45812;53.540;9.774;2022-08-21T00:45:06;101621.13;;;13.90;93.85
59951;BME280;45812;53.540;9.774;2022-08-21T00:47:32;101615.09;;;13.88;93.79
59951;BME280;45812;53.540;9.774;2022-08-21T00:49:58;101611.91;;;13.85;93.82
59951;BME280;45812;53.540;9.774;2022-08-21T00:52:27;101620.13;;;13.83;93.70
59951;BME280;45812;53.540;9.774;2022-08-21T00:54:55;101621.28;;;13.81;93.92
59951;BME280;45812;53.540;9.774;2022-08-21T00:57:27;101621.06;;;13.74;94.23
59951;BME280;45812;53.540;9.774;2022-08-21T00:59:56;101624.91;;;13.72;94.01
59951;BME280;45812;53.540;9.774;2022-08-21T01:02:23;101626.41;;;13.66;93.98
59951;BME280;45812;53.540;9.774;2022-08-21T01:04:49;101616.38;;;13.60;94.02
59951;BME280;45812;53.540;9.774;2022-08-21T01:07:15;101620.50;;;13.54;94.20
59951;BME280;45812;53.540;9.774;2022-08-21T01:09:41;101625.34;;;13.51;94.81
59951;BME280;45812;53.540;9.774;2022-08-21T01:12:08;101621.16;;;13.48;94.96
59951;BME280;45812;53.540;9.774;2022-08-21T01:14:35;101620.34;;;13.48;95.37
59951;BME280;45812;53.540;9.774;2022-08-21T01:17:01;101620.34;;;13.48;95.28
59951;BME280;45812;53.540;9.774;2022-08-21T01:19:28;101619.81;;;13.44;95.67
59951;BME280;45812;53.540;9.774;2022-08-21T01:21:54;101634.53;;;13.40;96.05
59951;BME280;45812;53.540;9.774;2022-08-21T01:24:20;101622.00;;;13.41;96.01
59951;BME280;45812;53.540;9.774;2022-08-21T01:26:46;101632.16;;;13.37;96.33
59951;BME280;45812;53.540;9.774;2022-08-21T01:32:08;101631.63;;;13.25;97.08
59951;BME280;45812;53.540;9.774;2022-08-21T01:34:36;101630.56;;;13.18;97.23
59951;BME280;45812;53.540;9.774;2022-08-21T01:37:02;101628.84;;;13.17;97.54
59951;BME280;45812;53.540;9.774;2022-08-21T01:39:28;101624.66;;;13.15;97.75
59951;BME280;45812;53.540;9.774;2022-08-21T01:41:53;101627.81;;;13.10;97.52
59951;BME280;45812;53.540;9.774;2022-08-21T01:44:22;101625.78;;;13.04;97.38
59951;BME280;45812;53.540;9.774;2022-08-21T01:46:47;101628.06;;;12.99;96.89
59951;BME280;45812;53.540;9.774;2022-08-21T01:49:13;101624.88;;;12.95;96.68
59951;BME280;45812;53.540;9.774;2022-08-21T01:51:40;101627.56;;;12.95;96.84
59951;BME280;45812;53.540;9.774;2022-08-21T01:54:05;101633.75;;;12.96;96.96
59951;BME280;45812;53.540;9.774;2022-08-21T01:56:36;101628.03;;;12.91;96.56
59951;BME280;45812;53.540;9.774;2022-08-21T01:59:03;101620.03;;;12.91;96.26
59951;BME280;45812;53.540;9.774;2022-08-21T02:01:28;101620.34;;;12.88;96.67
59951;BME280;45812;53.540;9.774;2022-08-21T02:03:54;101625.00;;;12.86;96.72
59951;BME280;45812;53.540;9.774;2022-08-21T02:06:19;101619.97;;;12.83;96.53
59951;BME280;45812;53.540;9.774;2022-08-21T02:08:46;101616.59;;;12.81;96.83
59951;BME280;45812;53.540;9.774;2022-08-21T02:11:11;101613.25;;;12.79;96.61
59951;BME280;45812;53.540;9.774;2022-08-21T02:13:37;101617.75;;;12.78;96.88
59951;BME280;45812;53.540;9.774;2022-08-21T02:16:03;101612.09;;;12.81;96.95
59951;BME280;45812;53.540;9.774;2022-08-21T02:18:28;101613.25;;;12.79;96.53
59951;BME280;45812;53.540;9.774;2022-08-21T02:20:54;101618.75;;;12.77;96.49
59951;BME280;45812;53.540;9.774;2022-08-21T02:23:19;101613.59;;;12.76;96.30
59951;BME280;45812;53.540;9.774;2022-08-21T02:25:45;101625.25;;;12.74;96.51
59951;BME280;45812;53.540;9.774;2022-08-21T02:28:12;101621.91;;;12.72;96.72
59951;BME280;45812;53.540;9.774;2022-08-21T02:30:42;101616.72;;;12.71;96.46
59951;BME280;45812;53.540;9.774;2022-08-21T02:33:09;101615.88;;;12.70;96.32
59951;BME280;45812;53.540;9.774;2022-08-21T02:35:35;101617.88;;;12.68;96.28
59951;BME280;45812;53.540;9.774;2022-08-21T02:38:05;101618.88;;;12.67;96.60
59951;BME280;45812;53.540;9.774;2022-08-21T02:40:35;101610.88;;;12.67;96.77
59951;BME280;45812;53.540;9.774;2022-08-21T02:43:03;101612.69;;;12.67;96.62
59951;BME280;45812;53.540;9.774;2022-08-21T02:45:28;101616.53;;;12.64;96.71
59951;BME280;45812;53.540;9.774;2022-08-21T02:47:57;101618.34;;;12.64;96.98
59951;BME280;45812;53.540;9.774;2022-08-21T02:50:29;101620.03;;;12.65;97.62
59951;BME280;45812;53.540;9.774;2022-08-21T02:52:55;101611.72;;;12.68;97.70
59951;BME280;45812;53.540;9.774;2022-08-21T02:55:22;101613.53;;;12.67;97.36
59951;BME280;45812;53.540;9.774;2022-08-21T02:57:48;101608.88;;;12.69;97.49
59951;BME280;45812;53.540;9.774;2022-08-21T03:00:15;101607.19;;;12.68;96.71
59951;BME280;45812;53.540;9.774;2022-08-21T03:02:40;101601.53;;;12.71;96.64
59951;BME280;45812;53.540;9.774;2022-08-21T03:05:08;101601.38;;;12.73;96.85
59951;BME280;45812;53.540;9.774;2022-08-21T03:07:36;101610.06;;;12.75;97.23
59951;BME280;45812;53.540;9.774;2022-08-21T03:10:03;101597.88;;;12.72;96.62
59951;BME280;45812;53.540;9.774;2022-08-21T03:12:28;101596.03;;;12.73;96.46
59951;BME280;45812;53.540;9.774;2022-08-21T03:14:54;101597.03;;;12.72;96.35
59951;BME280;45812;53.540;9.774;2022-08-21T03:17:19;101603.38;;;12.71;96.07
59951;BME280;45812;53.540;9.774;2022-08-21T03:19:44;101602.69;;;12.69;95.92
59951;BME280;45812;53.540;9.774;2022-08-21T03:22:10;101596.84;;;12.65;95.98
59951;BME280;45812;53.540;9.774;2022-08-21T03:24:35;101593.44;;;12.63;95.91
59951;BME280;45812;53.540;9.774;2022-08-21T03:27:00;101597.13;;;12.62;96.28
59951;BME280;45812;53.540;9.774;2022-08-21T03:29:25;101593.78;;;12.60;96.61
59951;BME280;45812;53.540;9.774;2022-08-21T03:31:51;101591.25;;;12.59;96.94
59951;BME280;45812;53.540;9.774;2022-08-21T03:34:20;101594.09;;;12.57;97.44
59951;BME280;45812;53.540;9.774;2022-08-21T03:36:45;101588.75;;;12.57;97.92
59951;BME280;45812;53.540;9.774;2022-08-21T03:39:10;101592.41;;;12.56;98.56
59951;BME280;45812;53.540;9.774;2022-08-21T03:41:36;101592.41;;;12.56;98.44
59951;BME280;45812;53.540;9.774;2022-08-21T03:44:01;101595.09;;;12.56;98.52
59951;BME280;45812;53.540;9.774;2022-08-21T03:46:26;101582.56;;;12.57;98.99
59951;BME280;45812;53.540;9.774;2022-08-21T03:48:52;101587.06;;;12.56;99.04
59951;BME280;45812;53.540;9.774;2022-08-21T03:51:18;101586.22;;;12.56;99.39
59951;BME280;45812;53.540;9.774;2022-08-21T03:53:43;101580.91;;;12.56;99.96
59951;BME280;45812;53.540;9.774;2022-08-21T03:56:10;101593.25;;;12.57;99.87
59951;BME280;45812;53.540;9.774;2022-08-21T03:58:35;101588.75;;;12.57;99.76
59951;BME280;45812;53.540;9.774;2022-08-21T04:01:02;101600.28;;;12.58;99.85
59951;BME280;45812;53.540;9.774;2022-08-21T04:03:28;101598.28;;;12.60;99.00
59951;BME280;45812;53.540;9.774;2022-08-21T04:05:54;101597.84;;;12.64;98.55
59951;BME280;45812;53.540;9.774;2022-08-21T04:08:19;101594.19;;;12.73;97.89
59951;BME280;45812;53.540;9.774;2022-08-21T04:10:47;101596.31;;;12.88;96.75
59951;BME280;45812;53.540;9.774;2022-08-21T04:13:13;101591.03;;;13.04;96.02
59951;BME280;45812;53.540;9.774;2022-08-21T04:15:39;101591.06;;;13.12;95.59
59951;BME280;45812;53.540;9.774;2022-08-21T04:18:05;101591.59;;;13.16;95.34
59951;BME280;45812;53.540;9.774;2022-08-21T04:20:31;101588.31;;;13.22;95.79
59951;BME280;45812;53.540;9.774;2022-08-21T04:22:57;101593.00;;;13.28;95.78
59951;BME280;45812;53.540;9.774;2022-08-21T04:25:23;101596.25;;;13.40;95.78
59951;BME280;45812;53.540;9.774;2022-08-21T04:27:50;101597.94;;;13.57;95.26
59951;BME280;45812;53.540;9.774;2022-08-21T04:30:16;101599.16;;;13.71;94.73
59951;BME280;45812;53.540;9.774;2022-08-21T04:32:43;101600.72;;;13.81;94.42
59951;BME280;45812;53.540;9.774;2022-08-21T04:35:10;101601.75;;;13.97;94.22
59951;BME280;45812;53.540;9.774;2022-08-21T04:37:37;101609.78;;;14.05;93.88
59951;BME280;45812;53.540;9.774;2022-08-21T04:40:03;101605.41;;;14.12;93.63
59951;BME280;45812;53.540;9.774;2022-08-21T04:42:29;101609.28;;;14.17;93.29
59951;BME280;45812;53.540;9.774;2022-08-21T04:44:55;101606.09;;;14.22;93.05
59951;BME280;45812;53.540;9.774;2022-08-21T04:47:21;101608.28;;;14.27;92.95
59951;BME280;45812;53.540;9.774;2022-08-21T04:49:47;101612.81;;;14.34;92.76
59951;BME280;45812;53.540;9.774;2022-08-21T04:52:15;101613.50;;;14.44;92.37
59951;BME280;45812;53.540;9.774;2022-08-21T04:54:44;101613.66;;;14.59;91.82
59951;BME280;45812;53.540;9.774;2022-08-21T04:57:10;101610.47;;;14.72;91.04
59951;BME280;45812;53.540;9.774;2022-08-21T04:59:41;101609.09;;;14.84;90.72
59951;BME280;45812;53.540;9.774;2022-08-21T05:02:08;101612.44;;;14.94;91.04
59951;BME280;45812;53.540;9.774;2022-08-21T05:04:37;101616.94;;;15.02;89.94
59951;BME280;45812;53.540;9.774;2022-08-21T05:07:06;101617.94;;;15.09;90.29
59951;BME280;45812;53.540;9.774;2022-08-21T05:09:33;101616.22;;;15.16;90.06
59951;BME280;45812;53.540;9.774;2022-08-21T05:12:01;101609.84;;;15.17;88.40
59951;BME280;45812;53.540;9.774;2022-08-21T05:14:27;101609.66;;;15.19;86.72
59951;BME280;45812;53.540;9.774;2022-08-21T05:16:52;101616.19;;;15.24;88.37
59951;BME280;45812;53.540;9.774;2022-08-21T05:19:17;101612.13;;;15.36;87.42
59951;BME280;45812;53.540;9.774;2022-08-21T05:21:44;101614.94;;;15.43;86.46
59951;BME280;45812;53.540;9.774;2022-08-21T05:24:11;101606.72;;;15.44;85.87
59951;BME280;45812;53.540;9.774;2022-08-21T05:26:37;101620.94;;;15.53;86.90
59951;BME280;45812;53.540;9.774;2022-08-21T05:29:03;101615.50;;;15.69;85.14
59951;BME280;45812;53.540;9.774;2022-08-21T05:31:29;101612.25;;;15.82;84.53
59951;BME280;45812;53.540;9.774;2022-08-21T05:33:54;101623.00;;;15.82;85.08
59951;BME280;45812;53.540;9.774;2022-08-21T05:36:19;101619.78;;;15.87;85.60
59951;BME280;45812;53.540;9.774;2022-08-21T05:38:45;101619.03;;;16.01;84.44
59951;BME280;45812;53.540;9.774;2022-08-21T05:41:10;101622.75;;;16.15;83.59
59951;BME280;45812;53.540;9.774;2022-08-21T05:43:36;101632.91;;;16.27;81.05
59951;BME280;45812;53.540;9.774;2022-08-21T05:46:05;101629.28;;;16.20;82.03
59951;BME280;45812;53.540;9.774;2022-08-21T05:48:32;101620.03;;;16.23;80.81
59951;BME280;45812;53.540;9.774;2022-08-21T05:50:58;101638.84;;;16.23;81.98
59951;BME280;45812;53.540;9.774;2022-08-21T05:53:28;101634.41;;;16.30;81.30
59951;BME280;45812;53.540;9.774;2022-08-21T05:55:53;101637.94;;;16.30;81.48
59951;BME280;45812;53.540;9.774;2022-08-21T05:58:20;101632.72;;;16.29;82.16
59951;BME280;45812;53.540;9.774;2022-08-21T06:00:47;101633.22;;;16.10;82.35
59951;BME280;45812;53.540;9.774;2022-08-21T06:03:16;101640.31;;;16.02;83.15
59951;BME280;45812;53.540;9.774;2022-08-21T06:05:42;101631.91;;;15.83;83.84
59951;BME280;45812;53.540;9.774;2022-08-21T06:08:08;101635.69;;;15.65;84.36
59951;BME280;45812;53.540;9.774;2022-08-21T06:10:33;101638.19;;;15.59;85.05
59951;BME280;45812;53.540;9.774;2022-08-21T06:12:58;101630.28;;;15.57;85.38
59951;BME280;45812;53.540;9.774;2022-08-21T06:15:24;101628.97;;;15.61;84.66
59951;BME280;45812;53.540;9.774;2022-08-21T06:17:49;101633.81;;;15.66;84.36
59951;BME280;45812;53.540;9.774;2022-08-21T06:20:14;101634.97;;;15.71;84.54
59951;BME280;45812;53.540;9.774;2022-08-21T06:22:40;101631.09;;;15.74;83.75
59951;BME280;45812;53.540;9.774;2022-08-21T06:25:05;101627.75;;;15.72;83.02
59951;BME280;45812;53.540;9.774;2022-08-21T06:27:31;101622.38;;;15.72;83.69
59951;BME280;45812;53.540;9.774;2022-08-21T06:29:57;101625.91;;;15.72;83.70
59951;BME280;45812;53.540;9.774;2022-08-21T06:32:22;101627.38;;;15.75;84.46
59951;BME280;45812;53.540;9.774;2022-08-21T06:34:48;101621.84;;;15.77;84.25
59951;BME280;45812;53.540;9.774;2022-08-21T06:37:13;101619.63;;;15.80;83.39
59951;BME280;45812;53.540;9.774;2022-08-21T06:39:39;101622.00;;;15.83;82.19
59951;BME280;45812;53.540;9.774;2022-08-21T06:42:04;101615.44;;;15.86;82.85
59951;BME280;45812;53.540;9.774;2022-08-21T06:44:30;101620.25;;;15.90;83.08
59951;BME280;45812;53.540;9.774;2022-08-21T06:46:55;101618.69;;;15.96;83.54
59951;BME280;45812;53.540;9.774;2022-08-21T06:49:21;101620.34;;;16.05;83.50
59951;BME280;45812;53.540;9.774;2022-08-21T06:51:47;101616.91;;;16.11;82.76
59951;BME280;45812;53.540;9.774;2022-08-21T06:54:12;101609.84;;;16.18;82.73
59951;BME280;45812;53.540;9.774;2022-08-21T06:56:38;101610.41;;;16.28;83.09
59951;BME280;45812;53.540;9.774;2022-08-21T06:59:04;101606.16;;;16.34;82.71
59951;BME280;45812;53.540;9.774;2022-08-21T07:01:30;101598.88;;;16.43;84.05
59951;BME280;45812;53.540;9.774;2022-08-21T07:03:55;101600.28;;;16.53;83.11
59951;BME280;45812;53.540;9.774;2022-08-21T07:06:20;101607.06;;;16.64;81.63
59951;BME280;45812;53.540;9.774;2022-08-21T07:08:46;101600.34;;;16.68;80.87
59951;BME280;45812;53.540;9.774;2022-08-21T07:11:17;101597.78;;;16.75;81.09
59951;BME280;45812;53.540;9.774;2022-08-21T07:13:43;101585.06;;;16.83;81.34
59951;BME280;45812;53.540;9.774;2022-08-21T07:16:09;101591.19;;;16.92;81.79
59951;BME280;45812;53.540;9.774;2022-08-21T07:18:34;101586.56;;;17.01;80.51
59951;BME280;45812;53.540;9.774;2022-08-21T07:21:01;101582.28;;;17.06;81.49
59951;BME280;45812;53.540;9.774;2022-08-21T07:23:31;101579.31;;;17.16;81.67
59951;BME280;45812;53.540;9.774;2022-08-21T07:25:57;101581.31;;;17.29;82.06
59951;BME280;45812;53.540;9.774;2022-08-21T07:28:24;101574.44;;;17.41;81.37
59951;BME280;45812;53.540;9.774;2022-08-21T07:30:51;101583.25;;;17.49;81.32
59951;BME280;45812;53.540;9.774;2022-08-21T07:33:18;101589.16;;;17.60;79.73
59951;BME280;45812;53.540;9.774;2022-08-21T07:35:43;101581.03;;;17.68;80.22
59951;BME280;45812;53.540;9.774;2022-08-21T07:38:08;101579.47;;;17.80;80.11
59951;BME280;45812;53.540;9.774;2022-08-21T07:40:34;101586.22;;;17.91;79.89
59951;BME280;45812;53.540;9.774;2022-08-21T07:42:59;101573.47;;;17.99;77.90
59951;BME280;45812;53.540;9.774;2022-08-21T07:45:24;101587.66;;;18.08;78.18
59951;BME280;45812;53.540;9.774;2022-08-21T07:47:51;101582.31;;;18.14;78.65
59951;BME280;45812;53.540;9.774;2022-08-21T07:50:16;101579.75;;;18.28;79.25
59951;BME280;45812;53.540;9.774;2022-08-21T07:52:42;101592.47;;;18.40;78.26
59951;BME280;45812;53.540;9.774;2022-08-21T07:55:11;101580.53;;;18.50;74.85
59951;BME280;45812;53.540;9.774;2022-08-21T07:57:37;101581.22;;;18.58;75.37
59951;BME280;45812;53.540;9.774;2022-08-21T08:00:05;101578.97;;;18.62;74.41
59951;BME280;45812;53.540;9.774;2022-08-21T08:02:31;101586.94;;;18.70;74.74
59951;BME280;45812;53.540;9.774;2022-08-21T08:05:02;101579.91;;;18.75;75.45
59951;BME280;45812;53.540;9.774;2022-08-21T08:07:28;101578.34;;;18.88;74.62
59951;BME280;45812;53.540;9.774;2022-08-21T08:09:53;101580.28;;;19.00;75.02
59951;BME280;45812;53.540;9.774;2022-08-21T08:12:19;101580.53;;;19.12;73.30
59951;BME280;45812;53.540;9.774;2022-08-21T08:14:45;101580.19;;;19.22;73.00
59951;BME280;45812;53.540;9.774;2022-08-21T08:17:11;101575.69;;;19.35;72.81
59951;BME280;45812;53.540;9.774;2022-08-21T08:19:36;101581.50;;;19.39;71.26
59951;BME280;45812;53.540;9.774;2022-08-21T08:22:01;101578.41;;;19.49;71.41
59951;BME280;45812;53.540;9.774;2022-08-21T08:24:26;101578.91;;;19.59;70.92
59951;BME280;45812;53.540;9.774;2022-08-21T08:26:52;101572.91;;;19.70;70.83
59951;BME280;45812;53.540;9.774;2022-08-21T08:29:19;101572.94;;;19.77;70.47
59951;BME280;45812;53.540;9.774;2022-08-21T08:31:45;101571.09;;;19.90;71.44
59951;BME280;45812;53.540;9.774;2022-08-21T08:34:10;101568.81;;;20.01;69.02
59951;BME280;45812;53.540;9.774;2022-08-21T08:36:36;101567.38;;;20.11;69.01
59951;BME280;45812;53.540;9.774;2022-08-21T08:39:05;101575.91;;;20.21;68.71
59951;BME280;45812;53.540;9.774;2022-08-21T08:41:31;101564.03;;;20.22;68.51
59951;BME280;45812;53.540;9.774;2022-08-21T08:44:03;101558.66;;;20.29;67.40
59951;BME280;45812;53.540;9.774;2022-08-21T08:46:41;101565.94;;;20.42;67.66
59951;BME280;45812;53.540;9.774;2022-08-21T08:49:11;101575.31;;;20.52;65.12
59951;BME280;45812;53.540;9.774;2022-08-21T08:51:43;101560.94;;;20.52;65.33
59951;BME280;45812;53.540;9.774;2022-08-21T08:54:17;101556.97;;;20.61;65.66
59951;BME280;45812;53.540;9.774;2022-08-21T08:56:44;101565.72;;;20.70;64.43
59951;BME280;45812;53.540;9.774;2022-08-21T08:59:23;101569.22;;;20.77;65.53
59951;BME280;45812;53.540;9.774;2022-08-21T09:01:51;101563.00;;;20.83;65.19
59951;BME280;45812;53.540;9.774;2022-08-21T09:04:22;101549.19;;;20.98;65.04
59951;BME280;45812;53.540;9.774;2022-08-21T09:23:36;101548.81;;;21.84;60.11
59951;BME280;45812;53.540;9.774;2022-08-21T09:26:12;101541.28;;;21.86;59.73
59951;BME280;45812;53.540;9.774;2022-08-21T09:28:38;101544.97;;;21.98;59.74
59951;BME280;45812;53.540;9.774;2022-08-21T09:31:10;101540.09;;;22.13;60.05
59951;BME280;45812;53.540;9.774;2022-08-21T09:33:38;101543.03;;;22.30;58.81
59951;BME280;45812;53.540;9.774;2022-08-21T09:36:04;101544.78;;;22.24;57.29
59951;BME280;45812;53.540;9.774;2022-08-21T09:38:32;101549.28;;;22.30;55.65
59951;BME280;45812;53.540;9.774;2022-08-21T09:41:05;101542.47;;;22.46;57.35
59951;BME280;45812;53.540;9.774;2022-08-21T09:43:31;101539.53;;;23.27;54.19
59951;BME280;45812;53.540;9.774;2022-08-21T09:46:05;101549.75;;;25.09;48.18
59951;BME280;45812;53.540;9.774;2022-08-21T09:48:49;101540.88;;;26.16;45.17
59951;BME280;45812;53.540;9.774;2022-08-21T09:51:20;101530.88;;;27.42;41.13
59951;BME280;45812;53.540;9.774;2022-08-21T09:53:58;101544.44;;;28.13;39.47
59951;BME280;45812;53.540;9.774;2022-08-21T09:56:38;101540.59;;;26.34;42.79
59951;BME280;45812;53.540;9.774;2022-08-21T09:59:29;101527.22;;;28.50;39.00
59951;BME280;45812;53.540;9.774;2022-08-21T10:01:58;101531.56;;;30.32;34.77
59951;BME280;45812;53.540;9.774;2022-08-21T10:04:30;101531.44;;;30.83;33.95
59951;BME280;45812;53.540;9.774;2022-08-21T10:07:12;101528.81;;;30.11;35.63
59951;BME280;45812;53.540;9.774;2022-08-21T10:09:39;101527.75;;;31.62;32.75
59951;BME280;45812;53.540;9.774;2022-08-21T10:12:22;101526.00;;;34.38;27.86
59951;BME280;45812;53.540;9.774;2022-08-21T10:17:35;101534.13;;;35.16;26.04
59951;BME280;45812;53.540;9.774;2022-08-21T10:20:22;101517.41;;;33.74;27.44
59951;BME280;45812;53.540;9.774;2022-08-21T10:25:36;101516.09;;;35.55;23.64
59951;BME280;45812;53.540;9.774;2022-08-21T10:28:11;101513.44;;;36.26;23.04
59951;BME280;45812;53.540;9.774;2022-08-21T10:33:20;101518.97;;;32.28;28.25
59951;BME280;45812;53.540;9.774;2022-08-21T10:36:13;101511.59;;;34.08;25.72
59951;BME280;45812;53.540;9.774;2022-08-21T10:47:06;101504.22;;;39.64;19.53
59951;BME280;45812;53.540;9.774;2022-08-21T10:55:16;101513.06;;;43.39;15.13
59951;BME280;45812;53.540;9.774;2022-08-21T10:57:58;101517.91;;;42.87;15.52
59951;BME280;45812;53.540;9.774;2022-08-21T11:00:28;101516.44;;;39.10;18.99
59951;BME280;45812;53.540;9.774;2022-08-21T11:03:14;101508.13;;;40.66;17.82
59951;BME280;45812;53.540;9.774;2022-08-21T11:08:17;101504.09;;;43.14;14.47
59951;BME280;45812;53.540;9.774;2022-08-21T11:11:31;101505.69;;;43.69;14.22
59951;BME280;45812;53.540;9.774;2022-08-21T11:19:02;101501.72;;;43.70;14.42
59951;BME280;45812;53.540;9.774;2022-08-21T11:21:45;101504.81;;;40.15;17.51
59951;BME280;45812;53.540;9.774;2022-08-21T11:24:29;101513.19;;;41.13;17.04
59951;BME280;45812;53.540;9.774;2022-08-21T11:27:18;101509.50;;;38.18;19.04
59951;BME280;45812;53.540;9.774;2022-08-21T11:29:52;101518.13;;;34.45;23.48
59951;BME280;45812;53.540;9.774;2022-08-21T11:41:08;101509.03;;;34.99;23.41
59951;BME280;45812;53.540;9.774;2022-08-21T11:44:02;101513.72;;;38.25;19.69
59951;BME280;45812;53.540;9.774;2022-08-21T11:46:49;101513.56;;;36.43;22.05
59951;BME280;45812;53.540;9.774;2022-08-21T11:49:22;101516.00;;;35.33;23.01
59951;BME280;45812;53.540;9.774;2022-08-21T11:55:01;101513.19;;;31.56;27.97
59951;BME280;45812;53.540;9.774;2022-08-21T11:57:55;101517.06;;;32.23;26.77
59951;BME280;45812;53.540;9.774;2022-08-21T12:00:40;101520.91;;;31.05;29.12
59951;BME280;45812;53.540;9.774;2022-08-21T12:03:17;101510.13;;;30.29;30.13
59951;BME280;45812;53.540;9.774;2022-08-21T12:06:05;101509.28;;;33.45;25.86
59951;BME280;45812;53.540;9.774;2022-08-21T12:08:36;101510.16;;;36.94;21.96
59951;BME280;45812;53.540;9.774;2022-08-21T12:11:08;101510.69;;;40.47;17.53
59951;BME280;45812;53.540;9.774;2022-08-21T12:13:38;101498.16;;;43.54;14.82
59951;BME280;45812;53.540;9.774;2022-08-21T12:16:15;101499.72;;;45.52;12.50
59951;BME280;45812;53.540;9.774;2022-08-21T12:18:41;101504.56;;;47.86;11.40
59951;BME280;45812;53.540;9.774;2022-08-21T12:21:21;101492.47;;;48.32;11.10
59951;BME280;45812;53.540;9.774;2022-08-21T12:26:52;101508.22;;;39.04;17.03
59951;BME280;45812;53.540;9.774;2022-08-21T12:29:33;101495.88;;;38.26;18.72
59951;BME280;45812;53.540;9.774;2022-08-21T12:32:04;101507.09;;;37.22;19.15
59951;BME280;45812;53.540;9.774;2022-08-21T12:34:53;101503.00;;;34.42;22.42
59951;BME280;45812;53.540;9.774;2022-08-21T12:37:49;101494.47;;;35.43;21.89
59951;BME280;45812;53.540;9.774;2022-08-21T12:40:25;101500.00;;;38.58;18.78
59951;BME280;45812;53.540;9.774;2022-08-21T12:42:54;101498.50;;;38.60;18.57
59951;BME280;45812;53.540;9.774;2022-08-21T12:45:40;101498.22;;;40.20;16.66
59951;BME280;45812;53.540;9.774;2022-08-21T12:50:42;101489.06;;;42.04;15.13
59951;BME280;45812;53.540;9.774;2022-08-21T12:53:14;101484.22;;;43.38;13.25
59951;BME280;45812;53.540;9.774;2022-08-21T12:55:42;101489.78;;;44.68;13.18
59951;BME280;45812;53.540;9.774;2022-08-21T12:58:21;101484.88;;;47.02;10.98
59951;BME280;45812;53.540;9.774;2022-08-21T13:00:53;101488.81;;;47.88;11.15
59951;BME280;45812;53.540;9.774;2022-08-21T13:03:21;101484.75;;;48.75;10.44
59951;BME280;45812;53.540;9.774;2022-08-21T13:05:47;101480.94;;;49.21;10.45
59951;BME280;45812;53.540;9.774;2022-08-21T13:08:13;101482.38;;;50.13;9.47
59951;BME280;45812;53.540;9.774;2022-08-21T13:10:40;101489.09;;;49.01;10.38
59951;BME280;45812;53.540;9.774;2022-08-21T13:13:17;101479.16;;;48.39;10.38
59951;BME280;45812;53.540;9.774;2022-08-21T13:15:45;101479.53;;;48.48;10.44
59951;BME280;45812;53.540;9.774;2022-08-21T13:18:21;101484.91;;;44.65;13.14
59951;BME280;45812;53.540;9.774;2022-08-21T13:20:47;101490.06;;;41.00;15.13
59951;BME280;45812;53.540;9.774;2022-08-21T13:23:26;101480.41;;;42.41;14.93
59951;BME280;45812;53.540;9.774;2022-08-21T13:25:52;101475.00;;;45.35;12.17
59951;BME280;45812;53.540;9.774;2022-08-21T13:28:18;101467.94;;;46.92;10.90
59951;BME280;45812;53.540;9.774;2022-08-21T13:30:49;101468.25;;;48.20;10.59
59951;BME280;45812;53.540;9.774;2022-08-21T13:33:17;101462.13;;;49.59;9.00
59951;BME280;45812;53.540;9.774;2022-08-21T13:38:25;101467.03;;;51.19;8.56
59951;BME280;45812;53.540;9.774;2022-08-21T13:40:55;101471.22;;;51.08;8.39
59951;BME280;45812;53.540;9.774;2022-08-21T13:43:26;101465.09;;;52.17;8.11
59951;BME280;45812;53.540;9.774;2022-08-21T13:45:55;101462.19;;;52.21;8.20
59951;BME280;45812;53.540;9.774;2022-08-21T13:48:23;101469.34;;;50.98;8.56
59951;BME280;45812;53.540;9.774;2022-08-21T13:50:50;101472.00;;;49.92;8.86
59951;BME280;45812;53.540;9.774;2022-08-21T13:55:51;101455.31;;;48.54;10.10
59951;BME280;45812;53.540;9.774;2022-08-21T13:58:29;101460.63;;;44.50;12.72
59951;BME280;45812;53.540;9.774;2022-08-21T14:00:55;101466.00;;;40.96;14.81
59951;BME280;45812;53.540;9.774;2022-08-21T14:03:42;101462.97;;;42.00;14.78
59951;BME280;45812;53.540;9.774;2022-08-21T14:06:22;101469.97;;;40.82;15.94
59951;BME280;45812;53.540;9.774;2022-08-21T14:08:51;101460.25;;;38.87;17.52
59951;BME280;45812;53.540;9.774;2022-08-21T14:11:17;101461.47;;;40.67;16.08